sensor_id;sensor_type;location;lat;lon;timestamp;temperature;humidity
21844;DHT22;11084;52.482;9.108;2023-03-25T00:02:14;8.60;99.90
21844;DHT22;11084;52.482;9.108;2023-03-25T00:04:41;8.50;99.90
21844;DHT22;11084;52.482;9.108;2023-03-25T00:07:07;8.50;99.90
21844;DHT22;11084;52.482;9.108;2023-03-25T00:09:33;8.50;99.90
21844;DHT22;11084;52.482;9.108;2023-03-25T00:11:59;8.50;99.90
21844;DHT22;11084;52.482;9.108;2023-03-25T00:14:25;8.50;99.90
21844;DHT22;11084;52.482;9.108;2023-03-25T00:16:51;8.50;99.90
21844;DHT22;11084;52.482;9.108;2023-03-25T00:19:19;8.50;99.90
21844;DHT22;11084;52.482;9.108;2023-03-25T00:21:49;8.50;99.90
21844;DHT22;11084;52.482;9.108;2023-03-25T00:24:16;8.40;99.90
21844;DHT22;11084;52.482;9.108;2023-03-25T00:26:46;8.40;99.90
21844;DHT22;11084;52.482;9.108;2023-03-25T00:29:14;8.40;99.90
21844;DHT22;11084;52.482;9.108;2023-03-25T00:31:42;8.40;99.90
21844;DHT22;11084;52.482;9.108;2023-03-25T00:34:08;8.40;99.90
21844;DHT22;11084;52.482;9.108;2023-03-25T00:36:39;8.30;99.90
21844;DHT22;11084;52.482;9.108;2023-03-25T00:39:07;8.40;99.90
21844;DHT22;11084;52.482;9.108;2023-03-25T00:41:33;8.30;99.90
21844;DHT22;11084;52.482;9.108;2023-03-25T00:44:02;8.30;99.90
21844;DHT22;11084;52.482;9.108;2023-03-25T00:46:32;8.30;99.90
21844;DHT22;11084;52.482;9.108;2023-03-25T00:48:59;8.30;99.90
21844;DHT22;11084;52.482;9.108;2023-03-25T00:51:27;8.30;99.90
21844;DHT22;11084;52.482;9.108;2023-03-25T00:53:57;8.30;99.90
21844;DHT22;11084;52.482;9.108;2023-03-25T00:56:29;8.30;99.90
21844;DHT22;11084;52.482;9.108;2023-03-25T00:58:56;8.30;99.90
21844;DHT22;11084;52.482;9.108;2023-03-25T01:01:25;8.20;99.90
21844;DHT22;11084;52.482;9.108;2023-03-25T01:03:56;8.30;99.90
21844;DHT22;11084;52.482;9.108;2023-03-25T01:06:32;8.30;99.90
21844;DHT22;11084;52.482;9.108;2023-03-25T01:09:01;8.30;99.90
21844;DHT22;11084;52.482;9.108;2023-03-25T01:11:31;8.30;99.90
21844;DHT22;11084;52.482;9.108;2023-03-25T01:14:05;8.40;99.90
21844;DHT22;11084;52.482;9.108;2023-03-25T01:16:32;8.40;99.90
21844;DHT22;11084;52.482;9.108;2023-03-25T01:18:59;8.40;99.90
21844;DHT22;11084;52.482;9.108;2023-03-25T01:25:12;8.50;99.90
21844;DHT22;11084;52.482;9.108;2023-03-25T01:27:38;8.50;99.90
21844;DHT22;11084;52.482;9.108;2023-03-25T01:30:06;8.50;99.90
21844;DHT22;11084;52.482;9.108;2023-03-25T01:32:32;8.50;99.90
21844;DHT22;11084;52.482;9.108;2023-03-25T01:34:58;8.50;99.90
21844;DHT22;11084;52.482;9.108;2023-03-25T01:37:24;8.60;99.90
21844;DHT22;11084;52.482;9.108;2023-03-25T01:39:52;8.60;99.90
21844;DHT22;11084;52.482;9.108;2023-03-25T01:42:18;8.50;99.90
21844;DHT22;11084;52.482;9.108;2023-03-25T01:47:10;8.50;99.90
21844;DHT22;11084;52.482;9.108;2023-03-25T01:49:39;8.40;99.90
21844;DHT22;11084;52.482;9.108;2023-03-25T01:52:20;8.40;99.90
21844;DHT22;11084;52.482;9.108;2023-03-25T01:54:51;8.40;99.90
21844;DHT22;11084;52.482;9.108;2023-03-25T01:57:21;8.40;99.90
21844;DHT22;11084;52.482;9.108;2023-03-25T01:59:49;8.30;99.90
21844;DHT22;11084;52.482;9.108;2023-03-25T02:02:18;8.30;99.90
21844;DHT22;11084;52.482;9.108;2023-03-25T02:05:01;6.90;99.90
21844;DHT22;11084;52.482;9.108;2023-03-25T02:07:34;8.30;99.90
21844;DHT22;11084;52.482;9.108;2023-03-25T02:10:06;8.30;99.90
21844;DHT22;11084;52.482;9.108;2023-03-25T02:12:34;8.30;99.90
21844;DHT22;11084;52.482;9.108;2023-03-25T02:15:03;8.30;99.90
21844;DHT22;11084;52.482;9.108;2023-03-25T02:21:14;8.30;99.90
21844;DHT22;11084;52.482;9.108;2023-03-25T02:31:10;8.30;99.90
21844;DHT22;11084;52.482;9.108;2023-03-25T02:39:57;8.30;99.90
21844;DHT22;11084;52.482;9.108;2023-03-25T02:43:00;8.30;99.90
21844;DHT22;11084;52.482;9.108;2023-03-25T02:45:36;8.30;99.90
21844;DHT22;11084;52.482;9.108;2023-03-25T02:48:17;8.30;99.90
21844;DHT22;11084;52.482;9.108;2023-03-25T02:51:00;8.30;99.90
21844;DHT22;11084;52.482;9.108;2023-03-25T02:53:33;8.30;99.90
21844;DHT22;11084;52.482;9.108;2023-03-25T02:56:04;8.40;99.90
21844;DHT22;11084;52.482;9.108;2023-03-25T02:58:33;8.40;99.90
21844;DHT22;11084;52.482;9.108;2023-03-25T03:01:00;8.40;99.90
21844;DHT22;11084;52.482;9.108;2023-03-25T03:03:27;8.40;99.90
21844;DHT22;11084;52.482;9.108;2023-03-25T03:05:59;8.40;99.90
21844;DHT22;11084;52.482;9.108;2023-03-25T03:11:27;8.40;99.90
21844;DHT22;11084;52.482;9.108;2023-03-25T03:17:17;8.40;99.90
21844;DHT22;11084;52.482;9.108;2023-03-25T03:19:50;8.40;99.90
21844;DHT22;11084;52.482;9.108;2023-03-25T03:22:44;8.40;99.90
21844;DHT22;11084;52.482;9.108;2023-03-25T03:28:17;8.40;99.90
21844;DHT22;11084;52.482;9.108;2023-03-25T03:30:59;8.40;99.90
21844;DHT22;11084;52.482;9.108;2023-03-25T03:33:52;8.40;99.90
21844;DHT22;11084;52.482;9.108;2023-03-25T03:36:35;8.50;99.90
21844;DHT22;11084;52.482;9.108;2023-03-25T03:39:18;8.50;99.90
21844;DHT22;11084;52.482;9.108;2023-03-25T03:42:06;8.40;99.90
21844;DHT22;11084;52.482;9.108;2023-03-25T03:45:16;8.40;99.90
21844;DHT22;11084;52.482;9.108;2023-03-25T03:47:50;8.40;99.90
21844;DHT22;11084;52.482;9.108;2023-03-25T03:50:24;7.00;99.90
21844;DHT22;11084;52.482;9.108;2023-03-25T03:55:48;8.40;99.90
21844;DHT22;11084;52.482;9.108;2023-03-25T03:58:26;8.40;99.90
21844;DHT22;11084;52.482;9.108;2023-03-25T04:01:07;8.40;99.90
21844;DHT22;11084;52.482;9.108;2023-03-25T04:03:51;8.40;99.90
21844;DHT22;11084;52.482;9.108;2023-03-25T04:09:23;8.50;99.90
21844;DHT22;11084;52.482;9.108;2023-03-25T04:14:43;8.40;99.90
21844;DHT22;11084;52.482;9.108;2023-03-25T04:17:09;8.40;99.90
21844;DHT22;11084;52.482;9.108;2023-03-25T04:19:35;8.40;99.90
21844;DHT22;11084;52.482;9.108;2023-03-25T04:22:03;8.40;99.90
21844;DHT22;11084;52.482;9.108;2023-03-25T04:24:30;8.50;99.90
21844;DHT22;11084;52.482;9.108;2023-03-25T04:27:00;8.50;99.90
21844;DHT22;11084;52.482;9.108;2023-03-25T04:29:32;8.50;99.90
21844;DHT22;11084;52.482;9.108;2023-03-25T04:31:59;8.40;99.90
21844;DHT22;11084;52.482;9.108;2023-03-25T04:34:26;8.50;99.90
21844;DHT22;11084;52.482;9.108;2023-03-25T04:36:53;6.80;99.90
21844;DHT22;11084;52.482;9.108;2023-03-25T04:39:19;8.40;99.90
21844;DHT22;11084;52.482;9.108;2023-03-25T04:41:50;8.40;99.90
21844;DHT22;11084;52.482;9.108;2023-03-25T04:44:18;8.40;99.90
21844;DHT22;11084;52.482;9.108;2023-03-25T04:46:46;8.40;99.90
21844;DHT22;11084;52.482;9.108;2023-03-25T04:49:18;8.30;99.90
21844;DHT22;11084;52.482;9.108;2023-03-25T04:51:50;8.30;99.90
21844;DHT22;11084;52.482;9.108;2023-03-25T04:54:17;8.30;99.90
21844;DHT22;11084;52.482;9.108;2023-03-25T04:56:44;8.30;99.90
21844;DHT22;11084;52.482;9.108;2023-03-25T04:59:12;8.20;99.90
21844;DHT22;11084;52.482;9.108;2023-03-25T05:01:38;8.20;99.90
21844;DHT22;11084;52.482;9.108;2023-03-25T05:04:08;8.20;99.90
21844;DHT22;11084;52.482;9.108;2023-03-25T05:06:47;8.20;99.90
21844;DHT22;11084;52.482;9.108;2023-03-25T05:09:18;8.20;99.90
21844;DHT22;11084;52.482;9.108;2023-03-25T05:11:47;8.20;99.90
21844;DHT22;11084;52.482;9.108;2023-03-25T05:14:15;8.20;99.90
21844;DHT22;11084;52.482;9.108;2023-03-25T05:16:43;8.20;99.90
21844;DHT22;11084;52.482;9.108;2023-03-25T05:19:11;8.20;99.90
21844;DHT22;11084;52.482;9.108;2023-03-25T05:21:38;8.20;99.90
21844;DHT22;11084;52.482;9.108;2023-03-25T05:24:07;8.20;99.90
21844;DHT22;11084;52.482;9.108;2023-03-25T05:26:40;8.20;99.90
21844;DHT22;11084;52.482;9.108;2023-03-25T05:29:12;8.20;99.90
21844;DHT22;11084;52.482;9.108;2023-03-25T05:31:44;8.20;99.90
21844;DHT22;11084;52.482;9.108;2023-03-25T05:34:13;8.20;99.90
21844;DHT22;11084;52.482;9.108;2023-03-25T05:36:41;8.20;99.90
21844;DHT22;11084;52.482;9.108;2023-03-25T05:39:08;8.20;99.90
21844;DHT22;11084;52.482;9.108;2023-03-25T05:41:35;8.20;99.90
21844;DHT22;11084;52.482;9.108;2023-03-25T05:44:08;8.20;99.90
21844;DHT22;11084;52.482;9.108;2023-03-25T05:46:35;8.20;99.90
21844;DHT22;11084;52.482;9.108;2023-03-25T05:49:01;8.20;99.90
21844;DHT22;11084;52.482;9.108;2023-03-25T05:51:28;8.20;99.90
21844;DHT22;11084;52.482;9.108;2023-03-25T05:53:58;8.20;99.90
21844;DHT22;11084;52.482;9.108;2023-03-25T05:56:24;8.30;99.90
21844;DHT22;11084;52.482;9.108;2023-03-25T05:58:51;8.30;99.90
21844;DHT22;11084;52.482;9.108;2023-03-25T06:01:19;8.40;99.90
21844;DHT22;11084;52.482;9.108;2023-03-25T06:03:46;8.50;99.90
21844;DHT22;11084;52.482;9.108;2023-03-25T06:06:14;8.70;99.90
21844;DHT22;11084;52.482;9.108;2023-03-25T06:08:48;8.80;99.90
21844;DHT22;11084;52.482;9.108;2023-03-25T06:11:16;8.90;99.90
21844;DHT22;11084;52.482;9.108;2023-03-25T06:13:44;8.90;99.90
21844;DHT22;11084;52.482;9.108;2023-03-25T06:16:19;8.90;99.90
21844;DHT22;11084;52.482;9.108;2023-03-25T06:18:49;8.90;99.90
21844;DHT22;11084;52.482;9.108;2023-03-25T06:21:19;8.80;99.90
21844;DHT22;11084;52.482;9.108;2023-03-25T06:23:46;8.80;99.90
21844;DHT22;11084;52.482;9.108;2023-03-25T06:26:16;8.80;99.90
21844;DHT22;11084;52.482;9.108;2023-03-25T06:28:42;8.70;99.90
21844;DHT22;11084;52.482;9.108;2023-03-25T06:31:20;8.80;99.90
21844;DHT22;11084;52.482;9.108;2023-03-25T06:33:52;8.80;99.90
21844;DHT22;11084;52.482;9.108;2023-03-25T06:36:19;8.70;99.90
21844;DHT22;11084;52.482;9.108;2023-03-25T06:38:48;8.70;99.90
21844;DHT22;11084;52.482;9.108;2023-03-25T06:41:18;8.70;99.90
21844;DHT22;11084;52.482;9.108;2023-03-25T06:44:06;8.70;99.90
21844;DHT22;11084;52.482;9.108;2023-03-25T06:46:41;8.70;99.90
21844;DHT22;11084;52.482;9.108;2023-03-25T06:49:11;8.80;99.90
21844;DHT22;11084;52.482;9.108;2023-03-25T06:51:37;8.80;99.90
21844;DHT22;11084;52.482;9.108;2023-03-25T06:54:03;8.90;99.90
21844;DHT22;11084;52.482;9.108;2023-03-25T06:56:29;8.90;99.90
21844;DHT22;11084;52.482;9.108;2023-03-25T06:58:55;9.00;99.90
21844;DHT22;11084;52.482;9.108;2023-03-25T07:01:21;9.20;99.90
21844;DHT22;11084;52.482;9.108;2023-03-25T07:03:47;9.30;99.90
21844;DHT22;11084;52.482;9.108;2023-03-25T07:06:16;9.50;99.90
21844;DHT22;11084;52.482;9.108;2023-03-25T07:08:43;9.90;99.90
21844;DHT22;11084;52.482;9.108;2023-03-25T07:11:11;10.00;99.90
21844;DHT22;11084;52.482;9.108;2023-03-25T07:13:39;10.10;99.90
21844;DHT22;11084;52.482;9.108;2023-03-25T07:16:06;10.10;99.90
21844;DHT22;11084;52.482;9.108;2023-03-25T07:18:32;10.20;99.90
21844;DHT22;11084;52.482;9.108;2023-03-25T07:20:58;10.20;99.90
21844;DHT22;11084;52.482;9.108;2023-03-25T07:23:25;10.30;99.90
21844;DHT22;11084;52.482;9.108;2023-03-25T07:25:51;10.30;99.90
21844;DHT22;11084;52.482;9.108;2023-03-25T07:28:18;10.40;99.90
21844;DHT22;11084;52.482;9.108;2023-03-25T07:30:46;10.30;99.90
21844;DHT22;11084;52.482;9.108;2023-03-25T07:33:12;10.50;99.90
21844;DHT22;11084;52.482;9.108;2023-03-25T07:35:38;10.80;99.90
21844;DHT22;11084;52.482;9.108;2023-03-25T07:38:04;10.90;99.90
21844;DHT22;11084;52.482;9.108;2023-03-25T07:40:30;11.10;99.90
21844;DHT22;11084;52.482;9.108;2023-03-25T07:42:56;11.30;99.90
21844;DHT22;11084;52.482;9.108;2023-03-25T07:45:55;11.40;99.90
21844;DHT22;11084;52.482;9.108;2023-03-25T07:48:20;11.50;99.90
21844;DHT22;11084;52.482;9.108;2023-03-25T07:50:50;11.40;99.90
21844;DHT22;11084;52.482;9.108;2023-03-25T07:53:16;11.30;99.90
21844;DHT22;11084;52.482;9.108;2023-03-25T07:55:43;11.20;99.90
21844;DHT22;11084;52.482;9.108;2023-03-25T07:58:18;11.10;99.90
21844;DHT22;11084;52.482;9.108;2023-03-25T08:00:44;11.00;99.90
21844;DHT22;11084;52.482;9.108;2023-03-25T08:03:11;10.90;99.90
21844;DHT22;11084;52.482;9.108;2023-03-25T08:05:41;10.90;99.90
21844;DHT22;11084;52.482;9.108;2023-03-25T08:08:09;10.80;99.90
21844;DHT22;11084;52.482;9.108;2023-03-25T08:10:35;10.80;99.90
21844;DHT22;11084;52.482;9.108;2023-03-25T08:13:01;10.80;99.90
21844;DHT22;11084;52.482;9.108;2023-03-25T08:15:27;9.50;99.90
21844;DHT22;11084;52.482;9.108;2023-03-25T08:17:53;10.80;99.90
21844;DHT22;11084;52.482;9.108;2023-03-25T08:20:19;10.80;99.90
21844;DHT22;11084;52.482;9.108;2023-03-25T08:22:45;10.80;99.90
21844;DHT22;11084;52.482;9.108;2023-03-25T08:25:12;10.90;99.90
21844;DHT22;11084;52.482;9.108;2023-03-25T08:27:39;11.20;99.90
21844;DHT22;11084;52.482;9.108;2023-03-25T08:30:05;11.40;99.90
21844;DHT22;11084;52.482;9.108;2023-03-25T08:32:35;11.50;99.90
21844;DHT22;11084;52.482;9.108;2023-03-25T08:35:04;11.50;99.90
21844;DHT22;11084;52.482;9.108;2023-03-25T08:37:30;11.60;99.90
21844;DHT22;11084;52.482;9.108;2023-03-25T08:40:06;11.60;99.90
21844;DHT22;11084;52.482;9.108;2023-03-25T08:42:36;11.50;99.90
21844;DHT22;11084;52.482;9.108;2023-03-25T08:45:04;11.40;99.90
21844;DHT22;11084;52.482;9.108;2023-03-25T08:47:30;11.40;99.90
21844;DHT22;11084;52.482;9.108;2023-03-25T08:49:56;11.30;99.90
21844;DHT22;11084;52.482;9.108;2023-03-25T08:52:23;11.20;99.90
21844;DHT22;11084;52.482;9.108;2023-03-25T08:54:49;11.20;99.90
21844;DHT22;11084;52.482;9.108;2023-03-25T08:57:15;11.20;99.90
21844;DHT22;11084;52.482;9.108;2023-03-25T08:59:41;11.30;99.90
21844;DHT22;11084;52.482;9.108;2023-03-25T09:02:11;11.30;99.90
21844;DHT22;11084;52.482;9.108;2023-03-25T09:04:37;11.40;99.90
21844;DHT22;11084;52.482;9.108;2023-03-25T09:07:05;11.50;99.90
21844;DHT22;11084;52.482;9.108;2023-03-25T09:09:41;11.60;99.90
21844;DHT22;11084;52.482;9.108;2023-03-25T09:12:07;11.70;99.90
21844;DHT22;11084;52.482;9.108;2023-03-25T09:14:33;11.70;99.90
21844;DHT22;11084;52.482;9.108;2023-03-25T09:17:00;11.70;99.90
21844;DHT22;11084;52.482;9.108;2023-03-25T09:19:26;11.60;99.90
21844;DHT22;11084;52.482;9.108;2023-03-25T09:21:52;11.60;99.90
21844;DHT22;11084;52.482;9.108;2023-03-25T09:24:18;11.60;99.90
21844;DHT22;11084;52.482;9.108;2023-03-25T09:26:47;11.60;99.90
21844;DHT22;11084;52.482;9.108;2023-03-25T09:29:13;11.50;99.90
21844;DHT22;11084;52.482;9.108;2023-03-25T09:31:39;11.50;99.90
21844;DHT22;11084;52.482;9.108;2023-03-25T09:34:05;11.50;99.90
21844;DHT22;11084;52.482;9.108;2023-03-25T09:36:32;11.40;99.90
21844;DHT22;11084;52.482;9.108;2023-03-25T09:38:58;11.30;99.90
21844;DHT22;11084;52.482;9.108;2023-03-25T09:47:31;11.10;99.90
21844;DHT22;11084;52.482;9.108;2023-03-25T09:50:02;11.00;99.90
21844;DHT22;11084;52.482;9.108;2023-03-25T09:52:53;10.90;99.90
21844;DHT22;11084;52.482;9.108;2023-03-25T09:55:25;10.90;99.90
21844;DHT22;11084;52.482;9.108;2023-03-25T09:58:44;11.20;99.90
21844;DHT22;11084;52.482;9.108;2023-03-25T10:04:39;11.80;99.90
21844;DHT22;11084;52.482;9.108;2023-03-25T10:07:48;12.30;99.90
21844;DHT22;11084;52.482;9.108;2023-03-25T10:13:31;12.70;99.90
21844;DHT22;11084;52.482;9.108;2023-03-25T10:16:44;12.80;99.90
21844;DHT22;11084;52.482;9.108;2023-03-25T10:19:42;12.70;99.90
21844;DHT22;11084;52.482;9.108;2023-03-25T10:22:37;12.80;99.90
21844;DHT22;11084;52.482;9.108;2023-03-25T10:25:17;12.80;99.90
21844;DHT22;11084;52.482;9.108;2023-03-25T10:27:51;12.70;99.90
21844;DHT22;11084;52.482;9.108;2023-03-25T10:30:37;12.80;99.90
21844;DHT22;11084;52.482;9.108;2023-03-25T10:33:22;12.90;99.90
21844;DHT22;11084;52.482;9.108;2023-03-25T10:35:55;12.90;99.90
21844;DHT22;11084;52.482;9.108;2023-03-25T10:38:23;12.90;99.90
21844;DHT22;11084;52.482;9.108;2023-03-25T10:41:13;13.00;99.90
21844;DHT22;11084;52.482;9.108;2023-03-25T10:43:45;13.10;99.90
21844;DHT22;11084;52.482;9.108;2023-03-25T10:48:59;13.30;99.90
21844;DHT22;11084;52.482;9.108;2023-03-25T10:51:33;13.40;99.90
21844;DHT22;11084;52.482;9.108;2023-03-25T10:54:00;13.60;99.90
21844;DHT22;11084;52.482;9.108;2023-03-25T10:56:34;13.60;99.90
21844;DHT22;11084;52.482;9.108;2023-03-25T10:59:16;13.60;99.90
21844;DHT22;11084;52.482;9.108;2023-03-25T11:01:45;13.70;99.90
21844;DHT22;11084;52.482;9.108;2023-03-25T11:04:18;13.80;99.90
21844;DHT22;11084;52.482;9.108;2023-03-25T11:06:51;13.80;99.90
21844;DHT22;11084;52.482;9.108;2023-03-25T11:09:24;13.70;99.90
21844;DHT22;11084;52.482;9.108;2023-03-25T11:11:58;13.50;99.90
21844;DHT22;11084;52.482;9.108;2023-03-25T11:14:27;13.30;99.90
21844;DHT22;11084;52.482;9.108;2023-03-25T11:16:59;13.10;99.90
21844;DHT22;11084;52.482;9.108;2023-03-25T11:19:36;13.00;99.90
21844;DHT22;11084;52.482;9.108;2023-03-25T11:22:17;11.40;99.90
21844;DHT22;11084;52.482;9.108;2023-03-25T11:24:49;13.00;99.90
21844;DHT22;11084;52.482;9.108;2023-03-25T11:27:57;13.10;99.90
21844;DHT22;11084;52.482;9.108;2023-03-25T11:30:25;13.20;99.90
21844;DHT22;11084;52.482;9.108;2023-03-25T11:33:04;13.30;99.90
21844;DHT22;11084;52.482;9.108;2023-03-25T11:35:36;13.40;99.90
21844;DHT22;11084;52.482;9.108;2023-03-25T11:38:15;13.50;99.90
21844;DHT22;11084;52.482;9.108;2023-03-25T11:40:52;13.60;99.90
21844;DHT22;11084;52.482;9.108;2023-03-25T11:43:21;13.70;99.90
21844;DHT22;11084;52.482;9.108;2023-03-25T11:45:49;13.80;99.90
21844;DHT22;11084;52.482;9.108;2023-03-25T11:48:18;13.80;99.90
21844;DHT22;11084;52.482;9.108;2023-03-25T11:50:48;14.00;99.90
21844;DHT22;11084;52.482;9.108;2023-03-25T11:53:20;14.10;99.90
21844;DHT22;11084;52.482;9.108;2023-03-25T11:55:51;14.10;99.90
21844;DHT22;11084;52.482;9.108;2023-03-25T11:58:24;14.10;99.90
21844;DHT22;11084;52.482;9.108;2023-03-25T12:01:00;14.20;99.90
21844;DHT22;11084;52.482;9.108;2023-03-25T12:03:32;14.10;99.90
21844;DHT22;11084;52.482;9.108;2023-03-25T12:08:58;14.30;99.90
21844;DHT22;11084;52.482;9.108;2023-03-25T12:14:50;14.40;99.90
21844;DHT22;11084;52.482;9.108;2023-03-25T12:51:30;15.10;99.90
21844;DHT22;11084;52.482;9.108;2023-03-25T12:54:02;15.10;99.90
21844;DHT22;11084;52.482;9.108;2023-03-25T13:00:08;14.90;99.90
21844;DHT22;11084;52.482;9.108;2023-03-25T13:06:17;14.70;99.90
21844;DHT22;11084;52.482;9.108;2023-03-25T13:09:28;14.60;99.90
21844;DHT22;11084;52.482;9.108;2023-03-25T13:12:13;14.70;99.90
21844;DHT22;11084;52.482;9.108;2023-03-25T13:15:17;14.80;99.90
21844;DHT22;11084;52.482;9.108;2023-03-25T13:20:27;14.80;99.90
21844;DHT22;11084;52.482;9.108;2023-03-25T13:22:58;14.70;99.90
21844;DHT22;11084;52.482;9.108;2023-03-25T13:25:53;14.60;99.90
21844;DHT22;11084;52.482;9.108;2023-03-25T13:28:27;14.50;99.90
21844;DHT22;11084;52.482;9.108;2023-03-25T13:31:29;14.40;99.90
21844;DHT22;11084;52.482;9.108;2023-03-25T13:45:49;13.70;99.90
21844;DHT22;11084;52.482;9.108;2023-03-25T13:51:18;13.50;99.90
21844;DHT22;11084;52.482;9.108;2023-03-25T13:54:01;13.30;99.90
21844;DHT22;11084;52.482;9.108;2023-03-25T14:14:16;13.10;99.90
21844;DHT22;11084;52.482;9.108;2023-03-25T14:16:56;13.10;99.90
21844;DHT22;11084;52.482;9.108;2023-03-25T14:19:34;13.10;99.90
21844;DHT22;11084;52.482;9.108;2023-03-25T14:22:15;13.10;99.90
21844;DHT22;11084;52.482;9.108;2023-03-25T14:24:44;13.10;99.90
21844;DHT22;11084;52.482;9.108;2023-03-25T14:30:04;13.20;99.90
21844;DHT22;11084;52.482;9.108;2023-03-25T14:32:39;13.20;99.90
21844;DHT22;11084;52.482;9.108;2023-03-25T14:43:43;13.00;99.90
21844;DHT22;11084;52.482;9.108;2023-03-25T14:48:50;12.90;99.90
21844;DHT22;11084;52.482;9.108;2023-03-25T14:51:42;12.90;99.90
21844;DHT22;11084;52.482;9.108;2023-03-25T14:54:26;12.90;99.90
21844;DHT22;11084;52.482;9.108;2023-03-25T14:57:08;12.80;99.90
21844;DHT22;11084;52.482;9.108;2023-03-25T14:59:42;11.50;99.90
21844;DHT22;11084;52.482;9.108;2023-03-25T15:05:14;12.70;99.90
21844;DHT22;11084;52.482;9.108;2023-03-25T15:08:14;12.60;99.90
21844;DHT22;11084;52.482;9.108;2023-03-25T15:10:47;12.60;99.90
21844;DHT22;11084;52.482;9.108;2023-03-25T15:13:18;12.40;99.90
21844;DHT22;11084;52.482;9.108;2023-03-25T15:15:56;12.30;99.90
21844;DHT22;11084;52.482;9.108;2023-03-25T15:21:10;13.00;99.90
21844;DHT22;11084;52.482;9.108;2023-03-25T15:23:58;11.80;99.90
21844;DHT22;11084;52.482;9.108;2023-03-25T15:26:42;11.70;99.90
21844;DHT22;11084;52.482;9.108;2023-03-25T15:39:29;11.10;99.90
21844;DHT22;11084;52.482;9.108;2023-03-25T15:45:15;11.00;99.90
21844;DHT22;11084;52.482;9.108;2023-03-25T15:56:51;10.70;99.90
21844;DHT22;11084;52.482;9.108;2023-03-25T15:59:34;10.60;99.90
21844;DHT22;11084;52.482;9.108;2023-03-25T16:02:14;10.50;99.90
21844;DHT22;11084;52.482;9.108;2023-03-25T16:04:47;10.40;99.90
21844;DHT22;11084;52.482;9.108;2023-03-25T16:07:17;10.40;99.90
21844;DHT22;11084;52.482;9.108;2023-03-25T16:09:47;10.30;99.90
21844;DHT22;11084;52.482;9.108;2023-03-25T16:12:23;10.30;99.90
21844;DHT22;11084;52.482;9.108;2023-03-25T16:14:51;10.20;99.90
21844;DHT22;11084;52.482;9.108;2023-03-25T16:17:20;10.10;99.90
21844;DHT22;11084;52.482;9.108;2023-03-25T16:19:53;10.00;99.90
21844;DHT22;11084;52.482;9.108;2023-03-25T16:22:29;10.00;99.90
21844;DHT22;11084;52.482;9.108;2023-03-25T16:25:04;10.00;99.90
21844;DHT22;11084;52.482;9.108;2023-03-25T16:27:33;11.90;99.90
21844;DHT22;11084;52.482;9.108;2023-03-25T16:30:06;10.00;99.90
21844;DHT22;11084;52.482;9.108;2023-03-25T16:32:44;9.90;99.90
21844;DHT22;11084;52.482;9.108;2023-03-25T16:35:27;9.90;99.90
21844;DHT22;11084;52.482;9.108;2023-03-25T16:37:57;9.90;99.90
21844;DHT22;11084;52.482;9.108;2023-03-25T16:40:31;9.80;99.90
21844;DHT22;11084;52.482;9.108;2023-03-25T16:43:06;9.70;99.90
21844;DHT22;11084;52.482;9.108;2023-03-25T16:45:50;9.70;99.90
21844;DHT22;11084;52.482;9.108;2023-03-25T16:51:47;7.40;99.90
21844;DHT22;11084;52.482;9.108;2023-03-25T16:57:23;9.50;99.90
21844;DHT22;11084;52.482;9.108;2023-03-25T16:59:51;9.40;99.90
21844;DHT22;11084;52.482;9.108;2023-03-25T17:02:27;9.40;99.90
21844;DHT22;11084;52.482;9.108;2023-03-25T17:05:21;9.30;99.90
21844;DHT22;11084;52.482;9.108;2023-03-25T17:07:58;8.10;99.90
21844;DHT22;11084;52.482;9.108;2023-03-25T17:39:24;6.70;99.90
21844;DHT22;11084;52.482;9.108;2023-03-25T17:42:00;6.50;99.90
21844;DHT22;11084;52.482;9.108;2023-03-25T17:44:35;6.40;99.90
21844;DHT22;11084;52.482;9.108;2023-03-25T17:47:04;6.40;99.90
21844;DHT22;11084;52.482;9.108;2023-03-25T17:49:35;6.40;99.90
21844;DHT22;11084;52.482;9.108;2023-03-25T17:52:01;6.40;99.90
21844;DHT22;11084;52.482;9.108;2023-03-25T17:54:27;6.40;99.90
21844;DHT22;11084;52.482;9.108;2023-03-25T17:56:54;6.30;99.90
21844;DHT22;11084;52.482;9.108;2023-03-25T17:59:24;6.40;99.90
21844;DHT22;11084;52.482;9.108;2023-03-25T18:01:51;6.40;99.90
21844;DHT22;11084;52.482;9.108;2023-03-25T18:04:18;6.40;99.90
21844;DHT22;11084;52.482;9.108;2023-03-25T18:06:47;6.40;99.90
21844;DHT22;11084;52.482;9.108;2023-03-25T18:09:22;6.40;99.90
21844;DHT22;11084;52.482;9.108;2023-03-25T18:11:51;6.40;99.90
21844;DHT22;11084;52.482;9.108;2023-03-25T18:14:19;6.30;99.90
21844;DHT22;11084;52.482;9.108;2023-03-25T18:16:46;6.40;99.90
21844;DHT22;11084;52.482;9.108;2023-03-25T18:19:22;6.30;99.90
21844;DHT22;11084;52.482;9.108;2023-03-25T18:21:50;6.30;99.90
21844;DHT22;11084;52.482;9.108;2023-03-25T18:24:16;6.40;99.90
21844;DHT22;11084;52.482;9.108;2023-03-25T18:26:44;6.40;99.90
21844;DHT22;11084;52.482;9.108;2023-03-25T18:29:22;6.40;99.90
21844;DHT22;11084;52.482;9.108;2023-03-25T18:31:50;6.40;99.90
21844;DHT22;11084;52.482;9.108;2023-03-25T18:34:17;6.40;99.90
21844;DHT22;11084;52.482;9.108;2023-03-25T18:36:43;6.40;99.90
21844;DHT22;11084;52.482;9.108;2023-03-25T18:39:15;6.40;99.90
21844;DHT22;11084;52.482;9.108;2023-03-25T18:41:43;6.40;99.90
21844;DHT22;11084;52.482;9.108;2023-03-25T18:44:10;6.40;99.90
21844;DHT22;11084;52.482;9.108;2023-03-25T18:46:37;6.40;99.90
21844;DHT22;11084;52.482;9.108;2023-03-25T18:49:12;6.40;99.90
21844;DHT22;11084;52.482;9.108;2023-03-25T18:51:40;6.40;99.90
21844;DHT22;11084;52.482;9.108;2023-03-25T18:54:06;6.40;99.90
21844;DHT22;11084;52.482;9.108;2023-03-25T18:56:32;6.50;99.90
21844;DHT22;11084;52.482;9.108;2023-03-25T18:58:58;5.40;99.90
21844;DHT22;11084;52.482;9.108;2023-03-25T19:01:24;6.50;99.90
21844;DHT22;11084;52.482;9.108;2023-03-25T19:03:51;6.50;99.90
21844;DHT22;11084;52.482;9.108;2023-03-25T19:06:17;6.50;99.90
21844;DHT22;11084;52.482;9.108;2023-03-25T19:08:45;6.50;99.90
21844;DHT22;11084;52.482;9.108;2023-03-25T19:11:12;6.50;99.90
21844;DHT22;11084;52.482;9.108;2023-03-25T19:13:39;6.50;99.90
21844;DHT22;11084;52.482;9.108;2023-03-25T19:16:05;6.50;99.90
21844;DHT22;11084;52.482;9.108;2023-03-25T19:18:32;6.50;99.90
21844;DHT22;11084;52.482;9.108;2023-03-25T19:20:59;6.50;99.90
21844;DHT22;11084;52.482;9.108;2023-03-25T19:23:25;6.60;99.90
21844;DHT22;11084;52.482;9.108;2023-03-25T19:25:52;6.60;99.90
21844;DHT22;11084;52.482;9.108;2023-03-25T19:28:20;6.60;99.90
21844;DHT22;11084;52.482;9.108;2023-03-25T19:30:48;6.60;99.90
21844;DHT22;11084;52.482;9.108;2023-03-25T19:33:16;6.60;99.90
21844;DHT22;11084;52.482;9.108;2023-03-25T19:35:52;6.60;99.90
21844;DHT22;11084;52.482;9.108;2023-03-25T19:38:20;6.60;99.90
21844;DHT22;11084;52.482;9.108;2023-03-25T19:40:58;6.60;99.90
21844;DHT22;11084;52.482;9.108;2023-03-25T19:43:26;6.60;99.90
21844;DHT22;11084;52.482;9.108;2023-03-25T19:45:57;6.60;99.90
21844;DHT22;11084;52.482;9.108;2023-03-25T19:48:23;6.60;99.90